createdAt,value
2018-11-20T00:25:00.241Z,33.7
2018-11-20T00:25:49.933Z,33.7
2018-11-20T00:26:40.552Z,33.7
2018-11-20T00:27:30.609Z,33.7
2018-11-20T00:28:21.838Z,33.6
2018-11-20T00:29:09.776Z,33.6
2018-11-20T00:30:00.851Z,33.7
2018-11-20T00:30:50.915Z,33.7
2018-11-20T00:31:40.906Z,33.6
2018-11-20T00:32:30.572Z,33.6
2018-11-20T00:33:20.776Z,33.6
2018-11-20T00:34:10.881Z,33.6
2018-11-20T00:35:00.748Z,33.6
2018-11-20T00:35:51.248Z,33.6
2018-11-20T00:36:41.429Z,33.6
2018-11-20T00:37:31.373Z,33.6
2018-11-20T00:38:21.458Z,33.6
2018-11-20T00:39:11.458Z,33.6
2018-11-20T00:40:02.335Z,33.6
2018-11-20T00:40:52.379Z,33.6
2018-11-20T00:41:42.462Z,33.6
2018-11-20T00:42:34.041Z,33.6
2018-11-20T00:43:22.297Z,33.6
2018-11-20T00:44:11.758Z,33.6
2018-11-20T00:45:02.197Z,33.6
2018-11-20T00:45:52.127Z,33.6
2018-11-20T00:46:42.257Z,33.6
2018-11-20T00:47:31.662Z,33.6
2018-11-20T00:48:22.496Z,33.6
2018-11-20T00:49:12.736Z,33.6
2018-11-20T00:50:02.477Z,33.6
2018-11-20T00:50:53.373Z,33.6
2018-11-20T00:51:42.009Z,33.5
2018-11-20T00:52:31.756Z,33.6
2018-11-20T00:53:21.736Z,33.5
2018-11-20T00:54:12.604Z,33.5
2018-11-20T00:55:02.354Z,33.5
2018-11-20T00:55:52.753Z,33.5
2018-11-20T00:56:43.312Z,33.5
2018-11-20T00:57:32.739Z,33.5
2018-11-20T00:58:22.419Z,33.5
2018-11-20T00:59:13.666Z,33.5
2018-11-20T01:00:02.411Z,33.4
2018-11-20T01:00:52.968Z,33.4
2018-11-20T01:01:43.507Z,33.5
2018-11-20T01:02:32.951Z,33.4
2018-11-20T01:03:24.021Z,33.4
2018-11-20T01:04:13.151Z,33.4
2018-11-20T01:05:04.235Z,33.4
2018-11-20T01:05:53.612Z,33.4
2018-11-20T01:06:43.097Z,33.4
2018-11-20T01:07:34.008Z,33.4
2018-11-20T01:08:23.393Z,33.4
2018-11-20T01:09:14.219Z,33.4
2018-11-20T01:10:03.510Z,33.4
2018-11-20T01:10:53.437Z,33.4
2018-11-20T01:11:44.048Z,33.4
2018-11-20T01:12:34.283Z,33.4
2018-11-20T01:13:22.956Z,33.4
2018-11-20T01:14:14.153Z,33.4
2018-11-20T01:15:02.848Z,33.4
2018-11-20T01:15:54.075Z,33.4
2018-11-20T01:16:43.955Z,33.4
2018-11-20T01:17:34.073Z,33.4
2018-11-20T01:18:23.672Z,33.4
2018-11-20T01:19:15.052Z,33.4
2018-11-20T01:20:04.054Z,33.4
2018-11-20T01:20:54.195Z,33.3
2018-11-20T01:21:44.978Z,33.3
2018-11-20T01:22:35.317Z,33.3
2018-11-20T01:23:25.113Z,33.4
2018-11-20T01:24:14.497Z,33.3
2018-11-20T01:25:04.455Z,33.3
2018-11-20T01:25:54.985Z,33.3
2018-11-20T01:26:44.175Z,33.3
2018-11-20T01:27:34.499Z,33.3
2018-11-20T01:28:25.164Z,33.3
2018-11-20T01:29:14.728Z,33.3
2018-11-20T01:30:04.852Z,33.3
2018-11-20T01:30:55.840Z,33.3
2018-11-20T01:31:45.662Z,33.3
2018-11-20T01:32:35.727Z,33.3
2018-11-20T01:33:25.784Z,33.3
2018-11-20T01:34:14.780Z,33.3
2018-11-20T01:35:04.245Z,33.3
2018-11-20T01:35:55.719Z,33.3
2018-11-20T01:36:44.982Z,33.3
2018-11-20T01:37:35.027Z,33.3
2018-11-20T01:38:25.876Z,33.3
2018-11-20T01:39:15.236Z,33.2
2018-11-20T01:40:04.979Z,33.3
2018-11-20T01:40:55.076Z,33.3
2018-11-20T01:41:45.831Z,33.3
2018-11-20T01:42:34.616Z,33.2
2018-11-20T01:43:24.863Z,33.3
2018-11-20T01:44:16.399Z,33.2
2018-11-20T01:45:05.594Z,33.2
2018-11-20T01:45:56.453Z,33.2
2018-11-20T01:46:44.988Z,33.2
2018-11-20T01:47:36.208Z,33.2
2018-11-20T01:48:26.635Z,33.2
2018-11-20T01:49:15.654Z,33.2
2018-11-20T01:50:05.993Z,33.1
2018-11-20T01:50:56.041Z,33.2
2018-11-20T01:51:46.484Z,33.2
2018-11-20T01:52:36.278Z,33.2
2018-11-20T01:53:26.451Z,33.1
2018-11-20T01:54:17.248Z,33.1
2018-11-20T01:55:07.303Z,33.1
2018-11-20T01:55:56.985Z,33.1
2018-11-20T01:56:46.912Z,33.1
2018-11-20T01:57:36.303Z,33.1
2018-11-20T01:58:26.800Z,33.1
2018-11-20T01:59:17.574Z,33.1
2018-11-20T02:00:06.211Z,33.1
2018-11-20T02:00:56.890Z,33.1
2018-11-20T02:01:47.787Z,33.1
2018-11-20T02:02:36.937Z,33.1
2018-11-20T02:03:27.892Z,33.1
2018-11-20T02:04:18.286Z,33.1
2018-11-20T02:05:07.730Z,33.1
2018-11-20T02:05:58.020Z,33.1
2018-11-20T02:06:48.163Z,33.1
2018-11-20T02:07:38.163Z,33.1
2018-11-20T02:08:27.486Z,33.1
2018-11-20T02:09:18.007Z,33.1
2018-11-20T02:10:07.616Z,33.1
2018-11-20T02:10:57.814Z,33.1
2018-11-20T02:11:47.722Z,33.1
2018-11-20T02:12:38.818Z,33
2018-11-20T02:13:26.769Z,33.1
2018-11-20T02:14:18.049Z,33
2018-11-20T02:15:07.902Z,33
2018-11-20T02:15:58.774Z,33
2018-11-20T02:16:48.005Z,33
2018-11-20T02:17:38.270Z,33
2018-11-20T02:18:28.069Z,33
2018-11-20T02:19:18.735Z,33
2018-11-20T02:20:07.812Z,33
2018-11-20T02:20:59.120Z,33
2018-11-20T02:21:49.141Z,33
2018-11-20T02:22:38.681Z,33
2018-11-20T02:23:29.304Z,33
2018-11-20T02:24:18.361Z,32.9
2018-11-20T02:25:08.859Z,32.9
2018-11-20T02:25:59.469Z,32.9
2018-11-20T02:26:49.155Z,32.9
2018-11-20T02:27:39.354Z,32.9
2018-11-20T02:28:29.114Z,32.9
2018-11-20T02:29:19.218Z,32.9
2018-11-20T02:30:09.746Z,32.9
2018-11-20T02:30:58.738Z,32.9
2018-11-20T02:31:50.061Z,32.9
2018-11-20T02:32:39.500Z,32.9
2018-11-20T02:33:30.562Z,32.9
2018-11-20T02:34:19.296Z,32.9
2018-11-20T02:35:10.103Z,32.9
2018-11-20T02:35:58.935Z,32.9
2018-11-20T02:36:50.220Z,32.9
2018-11-20T02:37:40.636Z,32.9
2018-11-20T02:38:28.968Z,32.9
2018-11-20T02:39:20.155Z,32.9
2018-11-20T02:40:10.768Z,32.9
2018-11-20T02:41:00.120Z,32.9
2018-11-20T02:41:49.891Z,32.9
2018-11-20T02:42:40.645Z,32.9
2018-11-20T02:43:29.815Z,32.9
2018-11-20T02:44:19.983Z,32.9
2018-11-20T02:45:10.232Z,32.8
2018-11-20T02:46:00.568Z,32.8
2018-11-20T02:46:49.987Z,32.8
2018-11-20T02:47:40.542Z,32.8
2018-11-20T02:48:33.510Z,32.8
2018-11-20T02:49:18.962Z,32.8
2018-11-20T02:50:11.225Z,32.8
2018-11-20T02:51:00.070Z,32.8
2018-11-20T02:51:51.314Z,32.8
2018-11-20T02:52:41.319Z,32.8
2018-11-20T02:53:30.833Z,32.8
2018-11-20T02:54:20.442Z,32.8
2018-11-20T02:55:10.683Z,32.8
2018-11-20T02:56:01.325Z,32.8
2018-11-20T02:56:51.628Z,32.8
2018-11-20T02:57:41.502Z,32.8
2018-11-20T02:58:30.864Z,32.8
2018-11-20T02:59:21.289Z,32.8
2018-11-20T03:00:11.529Z,32.8
2018-11-20T03:01:01.429Z,32.8
2018-11-20T03:01:51.575Z,32.8
2018-11-20T03:02:41.179Z,32.8
2018-11-20T03:03:31.430Z,32.8
2018-11-20T03:04:21.865Z,32.8
2018-11-20T03:05:11.654Z,32.8
2018-11-20T03:06:01.406Z,32.8
2018-11-20T03:06:51.866Z,32.8
2018-11-20T03:07:41.854Z,32.7
2018-11-20T03:08:32.872Z,32.8
2018-11-20T03:09:22.199Z,32.7
2018-11-20T03:10:12.393Z,32.7
2018-11-20T03:11:02.789Z,32.7
2018-11-20T03:11:51.840Z,32.7
2018-11-20T03:12:41.263Z,32.7
2018-11-20T03:13:32.472Z,32.7
2018-11-20T03:14:21.498Z,32.7
2018-11-20T03:15:12.185Z,32.7
2018-11-20T03:16:02.728Z,32.7
2018-11-20T03:16:52.238Z,32.7
2018-11-20T03:17:42.888Z,32.6
2018-11-20T03:18:33.720Z,32.6
2018-11-20T03:19:22.328Z,32.7
2018-11-20T03:20:12.538Z,32.7
2018-11-20T03:21:03.059Z,32.6
2018-11-20T03:21:53.337Z,32.6
2018-11-20T03:22:43.142Z,32.6
2018-11-20T03:23:32.985Z,32.6
2018-11-20T03:24:22.960Z,32.6
2018-11-20T03:25:12.975Z,32.6
2018-11-20T03:26:03.958Z,32.6
2018-11-20T03:26:53.841Z,32.6
2018-11-20T03:27:43.763Z,32.6
2018-11-20T03:28:33.963Z,32.6
2018-11-20T03:29:23.632Z,32.6
2018-11-20T03:30:13.588Z,32.6
2018-11-20T03:31:03.522Z,32.6
2018-11-20T03:31:53.495Z,32.6
2018-11-20T03:32:43.670Z,32.6
2018-11-20T03:33:33.447Z,32.6
2018-11-20T03:34:24.582Z,32.6
2018-11-20T03:35:13.772Z,32.6
2018-11-20T03:36:03.763Z,32.6
2018-11-20T03:36:54.228Z,32.6
2018-11-20T03:37:44.200Z,32.6
2018-11-20T03:38:33.364Z,32.6
2018-11-20T03:39:23.445Z,32.6
2018-11-20T03:40:14.572Z,32.6
2018-11-20T03:41:04.527Z,32.5
2018-11-20T03:41:54.832Z,32.6
2018-11-20T03:42:44.080Z,32.5
2018-11-20T03:43:33.811Z,32.5
2018-11-20T03:44:24.698Z,32.5
2018-11-20T03:45:14.675Z,32.5
2018-11-20T03:46:04.437Z,32.5
2018-11-20T03:46:54.816Z,32.5
2018-11-20T03:47:44.666Z,32.5
2018-11-20T03:48:34.120Z,32.5
2018-11-20T03:49:25.119Z,32.5
2018-11-20T03:50:15.045Z,32.5
2018-11-20T03:51:04.919Z,32.5
2018-11-20T03:51:55.157Z,32.4
2018-11-20T03:52:44.304Z,32.4
2018-11-20T03:53:34.516Z,32.4
2018-11-20T03:54:24.371Z,32.4
2018-11-20T03:55:15.154Z,32.4
2018-11-20T03:56:04.119Z,32.4
2018-11-20T03:56:55.310Z,32.4
2018-11-20T03:57:44.691Z,32.4
2018-11-20T03:58:34.648Z,32.4
2018-11-20T03:59:24.560Z,32.4
2018-11-20T04:00:14.425Z,32.4
2018-11-20T04:01:04.495Z,32.4
2018-11-20T04:01:55.184Z,32.4
2018-11-20T04:02:45.459Z,32.4
2018-11-20T04:03:36.221Z,32.4
2018-11-20T04:04:26.038Z,32.4
2018-11-20T04:05:16.763Z,32.4
2018-11-20T04:06:05.793Z,32.4
2018-11-20T04:06:55.672Z,32.4
2018-11-20T04:07:46.017Z,32.4
2018-11-20T04:08:36.347Z,32.3
2018-11-20T04:09:26.160Z,32.4
2018-11-20T04:10:16.405Z,32.4
2018-11-20T04:11:05.122Z,32.4
2018-11-20T04:11:55.527Z,32.3
2018-11-20T04:12:46.873Z,32.3
2018-11-20T04:13:36.080Z,32.3
2018-11-20T04:14:26.564Z,32.4
2018-11-20T04:15:15.267Z,32.4
2018-11-20T04:16:06.504Z,32.4
2018-11-20T04:16:56.347Z,32.4
2018-11-20T04:17:47.728Z,32.3
2018-11-20T04:18:37.073Z,32.3
2018-11-20T04:19:27.006Z,32.3
2018-11-20T04:20:16.407Z,32.3
2018-11-20T04:21:06.747Z,32.3
2018-11-20T04:21:56.447Z,32.3
2018-11-20T04:22:46.775Z,32.3
2018-11-20T04:23:37.524Z,32.3
2018-11-20T04:24:26.928Z,32.3
2018-11-20T04:25:33.061Z,32.3
2018-11-20T04:26:07.563Z,32.2
2018-11-20T04:26:57.966Z,32.2
2018-11-20T04:27:47.748Z,32.2
2018-11-20T04:28:37.465Z,32.2
2018-11-20T04:29:26.741Z,32.2
2018-11-20T04:30:18.426Z,32.2
2018-11-20T04:31:08.508Z,32.2
2018-11-20T04:31:57.579Z,32.2
2018-11-20T04:32:47.801Z,32.2
2018-11-20T04:33:38.121Z,32.1
2018-11-20T04:34:28.018Z,32.2
2018-11-20T04:35:18.190Z,32.1
2018-11-20T04:36:08.805Z,32.1
2018-11-20T04:36:58.380Z,32.1
2018-11-20T09:08:42.182Z,25.8
2018-11-20T09:09:32.282Z,25.9
2018-11-20T09:10:22.042Z,25.8
2018-11-20T09:11:11.236Z,25.8
2018-11-20T09:12:02.514Z,25.8
2018-11-20T09:12:51.739Z,25.8
2018-11-20T09:13:43.216Z,25.8
2018-11-20T09:14:32.324Z,25.8
2018-11-20T09:15:22.146Z,25.8
2018-11-20T09:16:12.326Z,25.8
2018-11-20T09:17:03.124Z,25.8
2018-11-20T09:17:53.253Z,25.8
2018-11-20T09:18:42.092Z,25.7
2018-11-20T09:19:33.534Z,25.7
2018-11-20T09:20:23.971Z,25.6
2018-11-20T09:21:14.062Z,25.6
2018-11-20T09:22:03.131Z,25.6
2018-11-20T09:22:53.319Z,25.5
2018-11-20T09:23:43.875Z,25.5
2018-11-20T09:24:32.619Z,25.4
2018-11-20T09:25:22.179Z,25.4
2018-11-20T09:26:13.199Z,25.3
2018-11-20T09:27:03.566Z,25.2
2018-11-20T09:27:53.683Z,25.1
2018-11-20T09:28:43.135Z,25.1
2018-11-20T09:29:33.728Z,25
2018-11-20T09:30:22.400Z,24.9
2018-11-20T09:31:12.234Z,24.9
2018-11-20T09:32:02.791Z,24.8
2018-11-20T09:32:53.890Z,24.7
2018-11-20T09:33:43.261Z,24.6
2018-11-20T09:34:34.753Z,24.5
2018-11-20T09:35:24.717Z,24.4
2018-11-20T09:36:14.153Z,24.4
2018-11-20T09:37:03.695Z,24.3
2018-11-20T09:37:53.563Z,24.2
2018-11-20T09:38:43.176Z,24.1
2018-11-20T09:39:34.685Z,24.1
2018-11-20T09:40:23.264Z,23.9
2018-11-20T09:41:13.907Z,23.9
2018-11-20T09:42:04.318Z,23.8
2018-11-20T09:42:54.785Z,23.7
2018-11-20T09:43:44.070Z,23.6
2018-11-20T09:44:34.510Z,23.6
2018-11-20T09:45:23.897Z,23.5
2018-11-20T09:46:14.045Z,23.4
2018-11-20T09:47:04.387Z,23.3
2018-11-20T09:47:54.705Z,23.3
2018-11-20T09:48:44.787Z,23.2
2018-11-20T09:49:35.399Z,23.1
2018-11-20T09:50:24.900Z,23
2018-11-20T09:51:14.600Z,22.9
2018-11-20T09:52:04.802Z,22.9
2018-11-20T09:52:55.899Z,22.8
2018-11-20T09:53:44.207Z,22.8
2018-11-20T09:54:35.294Z,22.7
2018-11-20T09:55:25.091Z,22.6
2018-11-20T09:56:14.624Z,22.6
2018-11-20T09:57:05.332Z,22.5
2018-11-20T09:57:54.837Z,22.4
2018-11-20T09:58:45.674Z,22.4
2018-11-20T09:59:36.574Z,22.4
2018-11-20T10:00:26.106Z,22.3
2018-11-20T10:01:15.870Z,22.3
2018-11-20T10:02:05.627Z,22.2
2018-11-20T10:02:55.478Z,22.1
2018-11-20T10:03:45.927Z,22.1
2018-11-20T10:04:35.171Z,22.1
2018-11-20T10:05:26.208Z,22
2018-11-20T10:06:15.529Z,21.9
2018-11-20T10:07:07.213Z,21.9
2018-11-20T10:07:55.548Z,21.9
2018-11-20T10:08:46.755Z,21.8
2018-11-20T10:09:36.786Z,21.8
2018-11-20T10:10:24.805Z,21.8
2018-11-20T10:11:15.975Z,21.7
2018-11-20T10:12:06.113Z,21.7
2018-11-20T10:12:56.453Z,21.6
2018-11-20T10:13:46.731Z,21.6
2018-11-20T10:14:36.920Z,21.6
2018-11-20T10:15:26.645Z,21.6
2018-11-20T10:16:15.830Z,21.5
2018-11-20T10:17:06.050Z,21.5
2018-11-20T10:17:57.021Z,21.4
2018-11-20T10:18:46.543Z,21.4
2018-11-20T10:19:37.113Z,21.4
2018-11-20T10:20:27.027Z,21.4
2018-11-20T10:21:16.595Z,21.3
2018-11-20T10:22:08.195Z,21.3
2018-11-20T10:22:56.782Z,21.3
2018-11-20T10:23:47.402Z,21.3
2018-11-20T10:24:37.398Z,21.2
2018-11-20T10:25:29.129Z,21.2
2018-11-20T10:28:47.819Z,21.1
2018-11-20T10:29:38.118Z,21.1
2018-11-20T10:30:27.605Z,21
2018-11-20T10:31:18.831Z,21
2018-11-20T10:32:07.518Z,21
2018-11-20T10:32:58.367Z,20.9
2018-11-20T10:33:48.062Z,20.9
2018-11-20T10:34:38.712Z,20.9
2018-11-20T10:35:28.030Z,20.9
2018-11-20T10:36:19.099Z,20.9
2018-11-20T10:37:07.466Z,20.9
2018-11-20T10:37:57.386Z,20.9
2018-11-20T10:38:48.186Z,20.8
2018-11-20T10:39:38.570Z,20.8
2018-11-20T10:40:27.861Z,20.8
2018-11-20T10:41:19.531Z,20.8
2018-11-20T10:42:07.587Z,20.8
2018-11-20T10:42:57.389Z,20.8
2018-11-20T10:43:48.891Z,20.7
2018-11-20T10:44:38.553Z,20.7
2018-11-20T10:45:28.969Z,20.7
2018-11-20T10:46:20.896Z,20.7
2018-11-20T10:47:08.006Z,20.6
2018-11-20T10:47:58.210Z,20.6
2018-11-20T10:48:48.339Z,20.6
2018-11-20T10:49:39.518Z,20.6
2018-11-20T10:50:29.683Z,20.6
2018-11-20T10:51:19.625Z,20.6
2018-11-20T10:52:07.421Z,20.6
2018-11-20T10:52:58.841Z,20.6
2018-11-20T10:53:48.931Z,20.6
2018-11-20T10:54:38.883Z,20.6
2018-11-20T10:55:28.933Z,20.6
2018-11-20T10:56:18.910Z,20.5
2018-11-20T10:57:09.428Z,20.5
2018-11-20T10:57:59.063Z,20.5
2018-11-20T10:58:49.807Z,20.4
2018-11-20T10:59:41.005Z,20.4
2018-11-20T11:00:29.202Z,20.4
2018-11-20T11:01:20.408Z,20.4
2018-11-20T11:02:08.739Z,20.4
2018-11-20T11:02:59.609Z,20.4
2018-11-20T11:03:49.215Z,20.4
2018-11-20T11:04:39.514Z,20.4
2018-11-20T11:05:29.709Z,20.4
2018-11-20T11:06:21.324Z,20.4
2018-11-20T11:07:15.618Z,20.4
2018-11-20T11:08:02.354Z,20.4
2018-11-20T11:08:50.635Z,20.4
2018-11-20T11:09:39.637Z,20.4
2018-11-20T11:10:29.777Z,20.4
2018-11-20T11:11:21.400Z,20.4
2018-11-20T11:12:13.422Z,20.4
2018-11-20T11:13:01.207Z,20.4
2018-11-20T11:13:51.474Z,20.4
2018-11-20T11:14:41.593Z,20.4
2018-11-20T11:15:30.487Z,20.4
2018-11-20T11:16:20.759Z,20.4
2018-11-20T11:17:12.155Z,20.3
2018-11-20T11:18:01.147Z,20.4
2018-11-20T11:18:50.357Z,20.4
2018-11-20T11:19:41.517Z,20.4
2018-11-20T11:20:33.030Z,20.3
2018-11-20T11:21:20.584Z,20.3
2018-11-20T11:22:11.511Z,20.3
2018-11-20T11:23:03.922Z,20.3
2018-11-20T11:23:51.636Z,20.3
2018-11-20T11:24:41.156Z,20.3
2018-11-20T11:25:31.228Z,20.3
2018-11-20T11:26:21.559Z,20.3
2018-11-20T11:27:11.560Z,20.3
2018-11-20T11:28:01.301Z,20.3
2018-11-20T11:28:54.536Z,20.3
2018-11-20T11:29:42.028Z,20.3
2018-11-20T11:30:31.461Z,20.3
2018-11-20T11:31:21.801Z,20.3
2018-11-20T11:32:11.941Z,20.3
2018-11-20T11:33:01.174Z,20.3
2018-11-20T11:33:51.560Z,20.3
2018-11-20T11:34:41.864Z,20.3
2018-11-20T11:35:31.637Z,20.3
2018-11-20T11:36:21.274Z,20.3
2018-11-20T11:37:12.004Z,20.3
2018-11-20T11:38:02.946Z,20.3
2018-11-20T11:38:52.621Z,20.3
2018-11-20T11:39:42.488Z,20.3
2018-11-20T11:40:32.798Z,20.3
2018-11-20T11:41:22.120Z,20.3
2018-11-20T11:42:12.277Z,20.3
2018-11-20T11:43:02.020Z,20.2
2018-11-20T11:43:53.037Z,20.2
2018-11-20T11:44:42.775Z,20.2
2018-11-20T11:45:31.820Z,20.2
2018-11-20T11:46:22.600Z,20.2
2018-11-20T11:47:12.700Z,20.2
2018-11-20T11:48:03.305Z,20.2
2018-11-20T11:48:52.702Z,20.2
2018-11-20T11:49:42.919Z,20.2
2018-11-20T11:50:32.374Z,20.2
2018-11-20T11:51:27.352Z,20.2
2018-11-20T11:52:13.665Z,20.2
2018-11-20T11:53:03.839Z,20.2
2018-11-20T11:53:53.013Z,20.1
2018-11-20T11:54:43.166Z,20.1
2018-11-20T11:55:32.417Z,20.2
2018-11-20T11:56:23.555Z,20.1
2018-11-20T11:57:13.817Z,20.1
2018-11-20T11:58:03.329Z,20.1
2018-11-20T11:58:53.509Z,20.1
2018-11-20T11:59:43.003Z,20.1
2018-11-20T12:00:33.972Z,20.1
2018-11-20T12:01:24.021Z,20.1
2018-11-20T12:03:52.992Z,20.1
2018-11-20T12:04:43.922Z,20.1
2018-11-20T12:05:33.474Z,20.1
2018-11-20T12:06:23.388Z,20.1
2018-11-20T12:07:14.433Z,20.1
2018-11-20T12:08:04.561Z,20.1
2018-11-20T12:08:54.695Z,20.1
2018-11-20T12:09:44.016Z,20.1
2018-11-20T12:10:39.003Z,20.1
2018-11-20T12:11:24.331Z,20.1
2018-11-20T12:12:13.935Z,20.1
2018-11-20T12:13:05.078Z,20.1
2018-11-20T12:13:53.843Z,20.1
2018-11-20T12:14:45.196Z,20.1
2018-11-20T12:15:34.820Z,20.1
2018-11-20T12:16:24.635Z,20.1
2018-11-20T12:17:14.398Z,20.1
2018-11-20T12:18:04.538Z,20.1
2018-11-20T12:18:57.049Z,20.1
2018-11-20T12:19:44.918Z,20.1
2018-11-20T12:20:33.874Z,20.1
2018-11-20T12:21:24.296Z,20.1
2018-11-20T12:22:14.597Z,20.1
2018-11-20T12:23:04.896Z,20.1
2018-11-20T12:23:54.828Z,20.1
2018-11-20T12:24:47.715Z,20.1
2018-11-20T12:25:34.852Z,20.1
2018-11-20T12:26:25.457Z,20.1
2018-11-20T12:27:14.629Z,20.1
2018-11-20T12:28:04.987Z,20.1
2018-11-20T12:29:01.103Z,20
2018-11-20T12:29:46.205Z,20.1
2018-11-20T12:30:34.771Z,20
2018-11-20T12:31:26.060Z,20.1
2018-11-20T12:32:15.455Z,20.1
2018-11-20T12:33:05.865Z,20
2018-11-20T12:33:56.149Z,20
2018-11-20T12:34:46.730Z,20
2018-11-20T12:35:43.945Z,20.1
2018-11-20T12:36:25.935Z,20
2018-11-20T12:37:16.306Z,20
2018-11-20T12:38:06.370Z,20
2018-11-20T12:38:55.997Z,20
2018-11-20T12:39:46.757Z,20
2018-11-20T12:40:37.058Z,20.1
2018-11-20T12:41:29.118Z,20
2018-11-20T12:42:16.754Z,20
2018-11-20T12:43:06.122Z,20
2018-11-20T12:43:59.887Z,20
2018-11-20T12:44:45.914Z,20
2018-11-20T12:45:39.545Z,20
2018-11-20T12:46:25.528Z,20
2018-11-20T12:47:18.764Z,20
2018-11-20T12:48:09.279Z,20
2018-11-20T12:49:00.621Z,20
2018-11-20T12:49:46.568Z,20
2018-11-20T12:50:37.263Z,20
2018-11-20T12:51:30.276Z,19.9
2018-11-20T12:52:17.531Z,20
2018-11-20T12:53:09.311Z,19.9
2018-11-20T12:53:57.725Z,20
2018-11-20T12:54:47.046Z,20
2018-11-20T12:55:40.813Z,19.9
2018-11-20T12:56:27.096Z,20
2018-11-20T12:57:18.805Z,20
2018-11-20T12:58:07.611Z,19.9
2018-11-20T12:58:59.441Z,20
2018-11-20T12:59:48.203Z,19.9
2018-11-20T13:00:40.304Z,19.9
2018-11-20T13:01:27.330Z,19.9
2018-11-20T13:02:18.797Z,19.9
2018-11-20T13:03:07.675Z,19.9
2018-11-20T13:03:57.230Z,19.9
2018-11-20T13:04:47.692Z,19.9
2018-11-20T13:05:39.465Z,20
2018-11-20T13:06:28.205Z,19.9
2018-11-20T13:07:19.277Z,20
2018-11-20T13:08:08.434Z,19.9
2018-11-20T13:08:58.340Z,19.9
2018-11-20T13:09:49.244Z,20
2018-11-20T13:10:37.810Z,19.9
2018-11-20T13:11:27.964Z,19.9
2018-11-20T13:12:18.020Z,19.9
2018-11-20T13:13:08.602Z,19.9
2018-11-20T13:14:02.704Z,19.9
2018-11-20T13:14:51.180Z,19.9
2018-11-20T13:15:39.284Z,19.9
2018-11-20T13:16:28.902Z,19.9
2018-11-20T13:17:21.012Z,19.9
2018-11-20T13:18:11.004Z,19.9
2018-11-20T13:19:00.317Z,19.9
2018-11-20T13:19:49.306Z,19.9
2018-11-20T13:20:39.332Z,19.9
2018-11-20T13:21:28.896Z,19.9
2018-11-20T13:22:20.034Z,19.9
2018-11-20T13:23:09.856Z,19.9
2018-11-20T13:23:59.880Z,19.9
2018-11-20T13:24:49.524Z,19.9
2018-11-20T13:25:39.520Z,19.9
2018-11-20T13:26:30.381Z,19.9
2018-11-20T13:27:19.356Z,19.9
2018-11-20T13:28:09.649Z,19.9
2018-11-20T13:28:59.146Z,19.9
2018-11-20T13:29:49.139Z,19.9
2018-11-20T13:30:40.681Z,19.9
2018-11-20T13:31:29.976Z,19.9
2018-11-20T13:32:20.076Z,19.9
2018-11-20T13:33:09.793Z,19.9
2018-11-20T13:34:01.741Z,19.9
2018-11-20T13:34:53.763Z,19.9
2018-11-20T13:35:39.827Z,19.9
2018-11-20T13:36:30.490Z,19.9
2018-11-20T13:37:21.483Z,19.9
2018-11-20T13:38:09.541Z,19.9
2018-11-20T13:39:03.265Z,19.9
2018-11-20T13:39:51.843Z,19.9
2018-11-20T13:40:39.886Z,19.9
2018-11-20T13:41:30.428Z,19.9
2018-11-20T13:42:20.429Z,19.9
2018-11-20T13:43:12.335Z,19.9
2018-11-20T13:44:01.373Z,19.9
2018-11-20T13:44:52.795Z,19.9
2018-11-20T13:45:40.318Z,19.8
2018-11-20T13:46:32.870Z,19.9
2018-11-20T13:47:19.980Z,19.8
2018-11-20T13:48:11.270Z,19.8
2018-11-20T13:49:00.758Z,19.8
2018-11-20T13:49:52.510Z,19.8
2018-11-20T13:50:41.319Z,19.8
2018-11-20T14:07:28.969Z,19.8
2018-11-20T14:08:19.056Z,19.8
2018-11-20T14:09:10.156Z,19.8
2018-11-20T14:10:00.144Z,19.8
2018-11-20T14:10:49.558Z,19.8
2018-11-20T14:11:54.313Z,19.8
2018-11-20T14:12:29.468Z,19.8
2018-11-20T14:13:20.300Z,19.8
2018-11-20T14:14:10.031Z,19.8
2018-11-20T14:15:00.363Z,19.8
2018-11-20T14:16:39.968Z,19.8
2018-11-20T14:17:30.314Z,19.8
2018-11-20T14:18:20.410Z,19.8
2018-11-20T14:19:24.278Z,19.8
2018-11-20T14:20:00.775Z,19.8
2018-11-20T14:20:49.993Z,19.8
2018-11-20T14:21:40.302Z,19.8
2018-11-20T14:22:29.699Z,19.8
2018-11-20T14:24:10.088Z,19.8
2018-11-20T14:25:00.172Z,19.8
2018-11-20T14:25:50.572Z,19.8
2018-11-20T14:26:54.888Z,19.8
2018-11-20T14:27:30.507Z,19.8
2018-11-20T14:28:35.794Z,19.8
2018-11-20T14:29:11.157Z,19.8
2018-11-20T14:30:15.754Z,19.8
2018-11-20T14:30:50.714Z,19.8
2018-11-20T14:31:41.524Z,19.8
2018-11-20T14:32:31.245Z,19.8
2018-11-20T14:33:20.808Z,19.8
2018-11-20T14:34:11.122Z,19.8
2018-11-20T14:35:01.751Z,19.8
2018-11-20T14:35:51.061Z,19.8
2018-11-20T14:36:57.032Z,19.8
2018-11-20T14:37:32.502Z,19.8
2018-11-20T14:38:20.375Z,19.8
2018-11-20T14:39:11.485Z,19.8
2018-11-20T14:40:01.830Z,19.8
2018-11-20T14:41:23.884Z,19.8
2018-11-20T14:41:41.665Z,19.8
2018-11-20T14:42:30.906Z,19.8
2018-11-20T14:43:21.744Z,19.8
2018-11-20T14:44:12.012Z,19.8
2018-11-20T14:45:01.716Z,19.8
2018-11-20T14:45:51.653Z,19.8
2018-11-20T14:46:41.686Z,19.8
2018-11-20T14:47:31.416Z,19.8
2018-11-20T14:48:36.493Z,19.8
2018-11-20T14:49:12.213Z,19.8
2018-11-20T14:50:01.539Z,19.8
2018-11-20T14:51:06.246Z,19.8
2018-11-20T14:51:41.360Z,19.8
2018-11-20T14:52:32.887Z,19.8
2018-11-20T14:53:22.626Z,19.8
2018-11-20T14:54:13.168Z,19.8
2018-11-20T14:55:02.403Z,19.8
2018-11-20T14:55:52.603Z,19.8
2018-11-20T14:56:43.000Z,19.8
2018-11-20T14:57:47.681Z,19.8
2018-11-20T14:58:22.378Z,19.8
2018-11-20T14:59:12.074Z,19.8
2018-11-20T15:00:03.101Z,19.8
2018-11-20T15:00:52.659Z,19.8
2018-11-20T15:01:42.558Z,19.8
2018-11-20T15:02:47.570Z,19.8
2018-11-20T15:03:23.156Z,19.8
2018-11-20T15:04:12.952Z,19.8
2018-11-20T15:05:03.435Z,19.8
2018-11-20T15:05:52.955Z,19.8
2018-11-20T15:06:43.357Z,19.8
2018-11-20T15:07:33.213Z,19.8
2018-11-20T15:08:39.327Z,19.8
2018-11-20T15:09:13.127Z,19.8
2018-11-20T15:10:03.272Z,19.8
2018-11-20T15:10:53.917Z,19.8
2018-11-20T15:11:44.092Z,19.8
2018-11-20T15:12:33.164Z,19.8
2018-11-20T15:13:23.914Z,19.8
2018-11-20T15:14:13.852Z,19.8
2018-11-20T15:15:04.114Z,19.8
2018-11-20T15:15:53.209Z,19.8
2018-11-20T15:17:34.206Z,19.8
2018-11-20T15:18:23.932Z,19.8
2018-11-20T15:19:13.649Z,19.8
2018-11-20T15:20:04.827Z,19.8
2018-11-20T15:20:53.532Z,19.8
2018-11-20T15:21:43.867Z,19.8
2018-11-20T15:22:34.399Z,19.8
2018-11-20T15:23:24.730Z,19.8
2018-11-20T15:24:14.089Z,19.8
2018-11-20T15:25:05.998Z,19.8
2018-11-20T15:25:54.816Z,19.8
2018-11-20T15:26:43.856Z,19.8
2018-11-20T15:27:35.354Z,19.8
2018-11-20T15:28:25.111Z,19.8
2018-11-20T15:29:14.954Z,19.8
2018-11-20T15:30:04.468Z,19.8
2018-11-20T15:31:09.886Z,19.7
2018-11-20T15:31:44.976Z,19.8
2018-11-20T15:32:36.142Z,19.8
2018-11-20T15:33:25.976Z,19.7
2018-11-20T15:34:15.288Z,19.7
2018-11-20T15:35:06.345Z,19.7
2018-11-20T15:36:09.753Z,19.8
2018-11-20T15:36:45.960Z,19.7
2018-11-20T15:37:36.265Z,19.7
2018-11-20T15:38:39.605Z,19.8
2018-11-20T15:39:15.895Z,19.8
2018-11-20T15:40:06.267Z,19.7
2018-11-20T15:40:55.815Z,19.7
2018-11-20T15:41:47.087Z,19.7
2018-11-20T15:42:36.072Z,19.7
2018-11-20T15:43:25.337Z,19.7
2018-11-20T15:44:16.268Z,19.7
2018-11-20T15:45:06.760Z,19.7
2018-11-20T15:45:56.684Z,19.7
2018-11-20T15:47:02.103Z,19.8
2018-11-20T15:47:35.700Z,19.7
2018-11-20T15:48:26.715Z,19.7
2018-11-20T15:49:16.875Z,19.7
2018-11-20T15:50:06.402Z,19.7
2018-11-20T15:50:56.399Z,19.7
2018-11-20T15:51:45.737Z,19.7
2018-11-20T15:52:37.412Z,19.7
2018-11-20T15:53:26.808Z,19.7
2018-11-20T15:54:16.989Z,19.7
2018-11-20T15:55:06.075Z,19.7
2018-11-20T15:55:56.172Z,19.7
2018-11-20T15:56:47.317Z,19.7
2018-11-20T15:57:36.904Z,19.7
2018-11-20T15:58:28.048Z,19.7
2018-11-20T15:59:16.536Z,19.7
2018-11-20T16:00:21.667Z,19.7
2018-11-20T16:00:57.542Z,19.7
2018-11-20T16:01:47.481Z,19.7
2018-11-20T16:02:38.029Z,19.8
2018-11-20T16:03:28.826Z,19.7
2018-11-20T16:04:17.748Z,19.8
2018-11-20T16:05:07.121Z,19.7
2018-11-20T16:05:58.050Z,19.8
2018-11-20T16:06:46.676Z,19.7
2018-11-20T16:07:38.244Z,19.8
2018-11-20T16:08:27.676Z,19.7
2018-11-20T16:09:18.614Z,19.8
2018-11-20T16:10:07.528Z,19.7
2018-11-20T16:10:57.261Z,19.7
2018-11-20T16:11:48.465Z,19.8
2018-11-20T16:12:54.870Z,19.7
2018-11-20T16:13:27.200Z,19.7
2018-11-20T16:14:18.368Z,19.7
2018-11-20T16:15:07.557Z,19.7
2018-11-20T16:15:59.224Z,19.7
2018-11-20T16:16:48.725Z,19.7
2018-11-20T16:17:38.099Z,19.7
2018-11-20T16:18:27.952Z,19.7
2018-11-20T16:19:17.735Z,19.7
2018-11-20T16:20:22.270Z,19.7
2018-11-20T16:21:13.710Z,19.7
2018-11-20T16:21:48.912Z,19.7
2018-11-20T16:22:39.195Z,19.7
2018-11-20T16:23:28.992Z,19.7
2018-11-20T16:24:19.130Z,19.7
2018-11-20T16:25:09.120Z,19.7
2018-11-20T16:25:58.909Z,19.7
2018-11-20T16:26:49.240Z,19.7